Time;durP1;ratioP1;P1;durP2;ratioP2;P2;SDS_P1;SDS_P2;PMS_P1;PMS_P2;Temp;Humidity;BMP_temperature;BMP_pressure;BME280_temperature;BME280_humidity;BME280_pressure;Samples;Min_cycle;Max_cycle;Signal;HPM_P1;HPM_P2
2024/01/24 00:02:21;;;;;;;;;;;;;;;;;;5036658;28;19909;-26
2024/01/24 00:04:47;;;;;;;;;;;;;;;;;;5036418;28;19978;-27
2024/01/24 00:07:13;;;;;;;;;;;;;;;;;;5036645;28;19909;-24
2024/01/24 00:09:39;;;;;;;;;;;;;;;;;;5036816;28;20317;-29
2024/01/24 00:12:05;;;;;;;;;;;;;;;;;;5036415;28;20356;-27
2024/01/24 00:14:31;;;;;;;;;;;;;;;;;;5036690;28;19909;-28
2024/01/24 00:16:57;;;;;;;;;;;;;;;;;;5036450;28;19909;-23
2024/01/24 00:19:23;;;;;;;;;;;;;;;;;;5036333;28;20206;-23
2024/01/24 00:21:49;;;;;;;;;;;;;;;;;;5035346;28;19967;-25
2024/01/24 00:24:15;;;;;;;;;;;;;;;;;;5036800;28;19909;-25
2024/01/24 00:26:41;;;;;;;;;;;;;;;;;;5036381;28;19913;-27
2024/01/24 00:29:07;;;;;;;;;;;;;;;;;;5036378;28;20020;-23
2024/01/24 00:31:33;;;;;;;;;;;;;;;;;;5036340;28;20205;-29
2024/01/24 00:33:59;;;;;;;;;;;;;;;;;;5036052;28;19909;-24
2024/01/24 00:36:25;;;;;;;;;;;;;;;;;;5036290;28;19909;-23
2024/01/24 00:38:51;;;;;;;;;;;;;;;;;;5036279;28;19909;-24
2024/01/24 00:41:17;;;;;;;;;;;;;;;;;;5034978;28;19913;-23
2024/01/24 00:43:43;;;;;;;;;;;;;;;;;;5036013;28;19919;-28
2024/01/24 00:46:09;;;;;;;;;;;;;;;;;;5035734;28;19913;-22
2024/01/24 00:48:35;;;;;;;;;;;;;;;;;;5035778;28;19909;-26
2024/01/24 00:51:01;;;;;;;;;;;;;;;;;;5034774;28;19920;-27
2024/01/24 00:53:27;;;;;;;;;;;;;;;;;;5035815;28;19913;-27
2024/01/24 00:55:55;;;;;;;;;;;;;;;;;;5035568;28;19913;-23
2024/01/24 00:58:21;;;;;;;;;;;;;;;;;;5035591;28;20375;-26
2024/01/24 01:00:47;;;;;;;;;;;;;;;;;;5035741;28;19909;-23
2024/01/24 01:03:13;;;;;;;;;;;;;;;;;;5035501;28;19931;-27
2024/01/24 01:05:39;;;;;;;;;;;;;;;;;;5035333;28;20328;-22
2024/01/24 01:08:05;;;;;;;;;;;;;;;;;;5035305;28;19909;-27
2024/01/24 01:10:31;;;;;;;;;;;;;;;;;;5035267;28;19971;-23
2024/01/24 01:12:57;;;;;;;;;;;;;;;;;;5035367;28;19956;-26
2024/01/24 01:15:24;;;;;;;;;;;;;;;;;;5035218;28;20247;-23
2024/01/24 01:17:50;;;;;;;;;;;;;;;;;;5035154;28;19910;-22
2024/01/24 01:20:19;;;;;;;;;;;;;;;;;;5035148;28;20015;-24
2024/01/24 01:22:45;;;;;;;;;;;;;;;;;;5034090;28;19909;-23
2024/01/24 01:25:11;;;;;;;;;;;;;;;;;;5035340;28;19932;-23
2024/01/24 01:27:37;;;;;;;;;;;;;;;;;;5035040;28;20311;-25
2024/01/24 01:30:03;;;;;;;;;;;;;;;;;;5035048;28;20259;-29
2024/01/24 01:32:29;;;;;;;;;;;;;;;;;;5034954;28;19913;-24
2024/01/24 01:34:55;;;;;;;;;;;;;;;;;;5033992;28;20374;-22
2024/01/24 01:37:23;;;;;;;;;;;;;;;;;;5035199;28;20035;-29
2024/01/24 01:39:49;;;;;;;;;;;;;;;;;;5033862;28;19909;-26
2024/01/24 01:42:15;;;;;;;;;;;;;;;;;;5035041;28;20295;-23
2024/01/24 01:44:41;;;;;;;;;;;;;;;;;;5034726;28;19968;-22
2024/01/24 01:47:07;;;;;;;;;;;;;;;;;;5034799;28;19997;-26
2024/01/24 01:49:33;;;;;;;;;;;;;;;;;;5034784;28;20011;-30
2024/01/24 01:51:59;;;;;;;;;;;;;;;;;;5034950;28;19966;-26
2024/01/24 01:54:27;;;;;;;;;;;;;;;;;;5034960;28;20336;-23
2024/01/24 01:56:52;;;;;;;;;;;;;;;;;;5034932;28;20248;-25
2024/01/24 01:59:18;;;;;;;;;;;;;;;;;;5034650;28;19916;-24
2024/01/24 02:01:44;;;;;;;;;;;;;;;;;;5034759;28;20358;-23
2024/01/24 02:04:10;;;;;;;;;;;;;;;;;;5034630;28;20008;-23
2024/01/24 02:06:36;;;;;;;;;;;;;;;;;;5034858;28;19963;-27
2024/01/24 02:09:08;;;;;;;;;;;;;;;;;;5034773;28;20324;-24
2024/01/24 02:11:34;;;;;;;;;;;;;;;;;;5034653;28;19975;-30
2024/01/24 02:14:00;;;;;;;;;;;;;;;;;;5034617;28;19910;-30
2024/01/24 02:16:27;;;;;;;;;;;;;;;;;;5034604;28;19913;-28
2024/01/24 02:18:53;;;;;;;;;;;;;;;;;;5037976;28;19970;-21
2024/01/24 02:21:19;;;;;;;;;;;;;;;;;;5039047;28;19909;-24
2024/01/24 02:23:45;;;;;;;;;;;;;;;;;;5038856;28;19910;-23
2024/01/24 02:26:11;;;;;;;;;;;;;;;;;;5038517;28;19920;-26
2024/01/24 02:28:37;;;;;;;;;;;;;;;;;;5038513;28;19909;-29
2024/01/24 02:31:03;;;;;;;;;;;;;;;;;;5038568;28;20244;-28
2024/01/24 02:33:29;;;;;;;;;;;;;;;;;;5038373;28;19909;-25
2024/01/24 02:35:55;;;;;;;;;;;;;;;;;;5038413;28;19917;-26
2024/01/24 02:38:21;;;;;;;;;;;;;;;;;;5038355;28;19909;-28
2024/01/24 02:40:47;;;;;;;;;;;;;;;;;;5037371;28;19967;-27
2024/01/24 02:43:13;;;;;;;;;;;;;;;;;;5038236;28;19951;-27
2024/01/24 02:45:39;;;;;;;;;;;;;;;;;;5038469;28;19912;-26
2024/01/24 02:48:05;;;;;;;;;;;;;;;;;;5038222;28;20392;-25
2024/01/24 02:50:31;;;;;;;;;;;;;;;;;;5038393;28;20337;-33
2024/01/24 02:52:57;;;;;;;;;;;;;;;;;;5038330;28;20295;-24
2024/01/24 02:55:23;;;;;;;;;;;;;;;;;;5038367;28;19909;-23
2024/01/24 02:57:49;;;;;;;;;;;;;;;;;;5037998;28;19963;-25
2024/01/24 03:00:15;;;;;;;;;;;;;;;;;;5037953;28;19909;-25
2024/01/24 03:02:41;;;;;;;;;;;;;;;;;;5036790;28;19909;-21
2024/01/24 03:05:08;;;;;;;;;;;;;;;;;;5038114;28;20368;-22
2024/01/24 03:07:34;;;;;;;;;;;;;;;;;;5038173;28;19921;-31
2024/01/24 03:10:02;;;;;;;;;;;;;;;;;;5037062;28;20234;-28
2024/01/24 03:12:28;;;;;;;;;;;;;;;;;;5037956;28;19909;-28
2024/01/24 03:14:54;;;;;;;;;;;;;;;;;;5037946;28;19963;-27
2024/01/24 03:17:20;;;;;;;;;;;;;;;;;;5037670;28;19909;-27
2024/01/24 03:19:46;;;;;;;;;;;;;;;;;;5037640;28;19909;-26
2024/01/24 03:22:13;;;;;;;;;;;;;;;;;;5036576;28;19949;-29
2024/01/24 03:24:39;;;;;;;;;;;;;;;;;;5037807;28;20252;-26
2024/01/24 03:27:05;;;;;;;;;;;;;;;;;;5037512;28;19909;-25
2024/01/24 03:29:31;;;;;;;;;;;;;;;;;;5036373;28;19920;-30
2024/01/24 03:31:57;;;;;;;;;;;;;;;;;;5037328;28;20256;-25
2024/01/24 03:34:22;;;;;;;;;;;;;;;;;;5037369;28;19971;-21
2024/01/24 03:36:48;;;;;;;;;;;;;;;;;;5037308;28;20374;-25
2024/01/24 03:39:14;;;;;;;;;;;;;;;;;;5037557;28;19910;-31
2024/01/24 03:41:40;;;;;;;;;;;;;;;;;;5037576;28;20255;-29
2024/01/24 03:44:06;;;;;;;;;;;;;;;;;;5037160;28;19909;-24
2024/01/24 03:46:32;;;;;;;;;;;;;;;;;;5037055;28;20263;-29
2024/01/24 03:48:58;;;;;;;;;;;;;;;;;;5037068;28;19909;-22
2024/01/24 03:51:24;;;;;;;;;;;;;;;;;;5037305;28;20372;-21
2024/01/24 03:53:50;;;;;;;;;;;;;;;;;;5036935;28;19920;-23
2024/01/24 03:56:16;;;;;;;;;;;;;;;;;;5037192;28;19909;-26
2024/01/24 03:58:42;;;;;;;;;;;;;;;;;;5036846;28;19909;-24
2024/01/24 04:01:10;;;;;;;;;;;;;;;;;;5036920;28;19909;-28
2024/01/24 04:03:36;;;;;;;;;;;;;;;;;;5036538;28;19921;-25
2024/01/24 04:06:02;;;;;;;;;;;;;;;;;;5036709;28;19913;-25
2024/01/24 04:08:28;;;;;;;;;;;;;;;;;;5036697;28;19916;-27
2024/01/24 04:10:54;;;;;;;;;;;;;;;;;;5036972;28;19913;-21
2024/01/24 04:13:20;;;;;;;;;;;;;;;;;;5036578;28;19987;-25
2024/01/24 04:15:46;;;;;;;;;;;;;;;;;;5036601;28;19948;-29
2024/01/24 04:18:12;;;;;;;;;;;;;;;;;;5036608;28;19971;-25
2024/01/24 04:20:37;;;;;;;;;;;;;;;;;;5036758;28;19920;-22
2024/01/24 04:23:03;;;;;;;;;;;;;;;;;;5035409;28;20008;-27
2024/01/24 04:25:30;;;;;;;;;;;;;;;;;;5036621;28;20017;-26
2024/01/24 04:27:55;;;;;;;;;;;;;;;;;;5036688;28;20229;-23
2024/01/24 04:30:22;;;;;;;;;;;;;;;;;;5036373;28;19909;-24
2024/01/24 04:32:48;;;;;;;;;;;;;;;;;;5036219;28;19921;-25
2024/01/24 04:35:14;;;;;;;;;;;;;;;;;;5036270;28;19913;-27
2024/01/24 04:37:40;;;;;;;;;;;;;;;;;;5036207;28;19966;-24
2024/01/24 04:40:06;;;;;;;;;;;;;;;;;;5035623;28;19916;-28
2024/01/24 04:42:32;;;;;;;;;;;;;;;;;;5035987;28;19909;-26
2024/01/24 04:44:58;;;;;;;;;;;;;;;;;;5036161;28;19920;-28
2024/01/24 04:47:24;;;;;;;;;;;;;;;;;;5035975;28;20007;-23
2024/01/24 04:49:50;;;;;;;;;;;;;;;;;;5035910;28;19924;-27
2024/01/24 04:52:16;;;;;;;;;;;;;;;;;;5036007;28;19909;-23
2024/01/24 04:54:42;;;;;;;;;;;;;;;;;;5035753;28;19915;-25
2024/01/24 04:57:08;;;;;;;;;;;;;;;;;;5035847;28;19920;-26
2024/01/24 04:59:34;;;;;;;;;;;;;;;;;;5035743;28;20304;-25
2024/01/24 05:02:00;;;;;;;;;;;;;;;;;;5035773;28;19952;-28
2024/01/24 05:04:26;;;;;;;;;;;;;;;;;;5035426;28;20203;-24
2024/01/24 05:06:52;;;;;;;;;;;;;;;;;;5035517;28;19966;-25
2024/01/24 05:09:18;;;;;;;;;;;;;;;;;;5035536;28;19940;-29
2024/01/24 05:11:44;;;;;;;;;;;;;;;;;;5035706;28;20003;-24
2024/01/24 05:14:10;;;;;;;;;;;;;;;;;;5035356;28;19909;-25
2024/01/24 05:16:36;;;;;;;;;;;;;;;;;;5034383;28;20002;-25
2024/01/24 05:19:02;;;;;;;;;;;;;;;;;;5035482;28;20336;-28
2024/01/24 05:21:28;;;;;;;;;;;;;;;;;;5035394;28;19991;-24
2024/01/24 05:23:54;;;;;;;;;;;;;;;;;;5035085;28;19913;-26
2024/01/24 05:26:20;;;;;;;;;;;;;;;;;;5034918;28;19913;-29
2024/01/24 05:28:46;;;;;;;;;;;;;;;;;;5034908;28;19909;-24
2024/01/24 05:31:12;;;;;;;;;;;;;;;;;;5034943;28;19909;-27
2024/01/24 05:33:38;;;;;;;;;;;;;;;;;;5034850;28;19913;-26
2024/01/24 05:36:04;;;;;;;;;;;;;;;;;;5034806;28;19917;-28
2024/01/24 05:38:30;;;;;;;;;;;;;;;;;;5034706;28;19952;-27
2024/01/24 05:40:56;;;;;;;;;;;;;;;;;;5033681;28;19920;-24
2024/01/24 05:43:22;;;;;;;;;;;;;;;;;;5034937;28;19920;-30
2024/01/24 05:45:51;;;;;;;;;;;;;;;;;;5035004;28;20252;-23
2024/01/24 05:48:17;;;;;;;;;;;;;;;;;;5034615;28;19948;-30
2024/01/24 05:50:43;;;;;;;;;;;;;;;;;;5034801;28;20259;-26
2024/01/24 05:53:09;;;;;;;;;;;;;;;;;;5033665;28;19909;-27
2024/01/24 05:55:35;;;;;;;;;;;;;;;;;;5034625;28;20332;-22
2024/01/24 05:58:01;;;;;;;;;;;;;;;;;;5034976;28;19959;-26
2024/01/24 06:00:28;;;;;;;;;;;;;;;;;;5034871;28;19932;-23
2024/01/24 06:02:54;;;;;;;;;;;;;;;;;;5034454;28;20267;-27
2024/01/24 06:05:20;;;;;;;;;;;;;;;;;;5034511;28;20008;-27
2024/01/24 06:07:49;;;;;;;;;;;;;;;;;;5034411;28;19932;-31
2024/01/24 06:10:15;;;;;;;;;;;;;;;;;;5033537;28;19955;-31
2024/01/24 06:12:41;;;;;;;;;;;;;;;;;;5034544;28;19920;-29
2024/01/24 06:15:07;;;;;;;;;;;;;;;;;;5034253;28;19909;-25
2024/01/24 06:17:33;;;;;;;;;;;;;;;;;;5034416;28;19917;-31
2024/01/24 06:20:00;;;;;;;;;;;;;;;;;;5034184;28;20359;-31
2024/01/24 06:22:26;;;;;;;;;;;;;;;;;;5033995;28;20039;-25
2024/01/24 06:24:51;;;;;;;;;;;;;;;;;;5034524;28;19963;-25
2024/01/24 06:27:17;;;;;;;;;;;;;;;;;;5034206;28;19920;-27
2024/01/24 06:29:43;;;;;;;;;;;;;;;;;;5034243;28;20344;-27
2024/01/24 06:32:09;;;;;;;;;;;;;;;;;;5034349;28;20012;-28
2024/01/24 06:34:35;;;;;;;;;;;;;;;;;;5034157;28;19916;-26
2024/01/24 06:37:01;;;;;;;;;;;;;;;;;;5034226;28;19910;-25
2024/01/24 06:39:27;;;;;;;;;;;;;;;;;;5034184;28;19917;-26
2024/01/24 06:41:53;;;;;;;;;;;;;;;;;;5033963;28;19913;-24
2024/01/24 06:44:19;;;;;;;;;;;;;;;;;;5033028;28;19909;-30
2024/01/24 06:46:45;;;;;;;;;;;;;;;;;;5034038;28;19963;-25
2024/01/24 06:49:11;;;;;;;;;;;;;;;;;;5033778;28;19913;-28
2024/01/24 06:51:37;;;;;;;;;;;;;;;;;;5033792;28;19917;-28
2024/01/24 06:54:04;;;;;;;;;;;;;;;;;;5033712;28;20353;-24
2024/01/24 06:56:30;;;;;;;;;;;;;;;;;;5034161;28;19936;-29
2024/01/24 06:58:55;;;;;;;;;;;;;;;;;;5034191;28;20344;-20
2024/01/24 07:01:21;;;;;;;;;;;;;;;;;;5034312;28;20390;-21
2024/01/24 07:03:48;;;;;;;;;;;;;;;;;;5035103;28;19944;-29
2024/01/24 07:06:14;;;;;;;;;;;;;;;;;;5037666;28;20010;-29
2024/01/24 07:08:42;;;;;;;;;;;;;;;;;;5036352;28;19917;-23
2024/01/24 07:11:09;;;;;;;;;;;;;;;;;;5037575;28;19917;-28
2024/01/24 07:13:35;;;;;;;;;;;;;;;;;;5036016;28;19920;-30
2024/01/24 07:16:04;;;;;;;;;;;;;;;;;;5036690;28;19916;-32
2024/01/24 07:18:31;;;;;;;;;;;;;;;;;;5036498;28;19909;-25
2024/01/24 07:20:57;;;;;;;;;;;;;;;;;;5036548;28;19909;-23
2024/01/24 07:23:23;;;;;;;;;;;;;;;;;;5035447;28;19920;-27
2024/01/24 07:25:49;;;;;;;;;;;;;;;;;;5036471;28;20383;-27
2024/01/24 07:28:15;;;;;;;;;;;;;;;;;;5036464;28;19994;-28
2024/01/24 07:30:41;;;;;;;;;;;;;;;;;;5035848;28;20004;-28
2024/01/24 07:33:07;;;;;;;;;;;;;;;;;;5036267;28;19910;-28
2024/01/24 07:35:33;;;;;;;;;;;;;;;;;;5036358;28;19909;-25
2024/01/24 07:37:59;;;;;;;;;;;;;;;;;;5035763;28;19990;-23
2024/01/24 07:40:25;;;;;;;;;;;;;;;;;;5036966;28;19917;-28
2024/01/24 07:42:52;;;;;;;;;;;;;;;;;;5036897;28;19909;-26
2024/01/24 07:45:18;;;;;;;;;;;;;;;;;;5036697;28;19928;-27
2024/01/24 07:47:44;;;;;;;;;;;;;;;;;;5036783;28;20363;-25
2024/01/24 07:50:11;;;;;;;;;;;;;;;;;;5037027;28;20259;-26
2024/01/24 07:52:37;;;;;;;;;;;;;;;;;;5036813;28;19932;-27
2024/01/24 07:55:03;;;;;;;;;;;;;;;;;;5036489;28;19909;-22
2024/01/24 07:57:29;;;;;;;;;;;;;;;;;;5036283;28;19932;-27
2024/01/24 07:59:55;;;;;;;;;;;;;;;;;;5036424;28;19945;-25
2024/01/24 08:02:21;;;;;;;;;;;;;;;;;;5036527;28;20340;-24
2024/01/24 08:04:47;;;;;;;;;;;;;;;;;;5036121;28;19921;-23
2024/01/24 08:07:13;;;;;;;;;;;;;;;;;;5036417;28;20361;-26
2024/01/24 08:09:39;;;;;;;;;;;;;;;;;;5036379;28;20332;-29
2024/01/24 08:12:05;;;;;;;;;;;;;;;;;;5036375;28;19917;-23
2024/01/24 08:14:31;;;;;;;;;;;;;;;;;;5035003;28;19996;-23
2024/01/24 08:16:57;;;;;;;;;;;;;;;;;;5036120;28;20332;-27
2024/01/24 08:19:23;;;;;;;;;;;;;;;;;;5036178;28;19909;-23
2024/01/24 08:21:49;;;;;;;;;;;;;;;;;;5036213;28;19919;-27
2024/01/24 08:24:15;;;;;;;;;;;;;;;;;;5036082;28;20343;-24
2024/01/24 08:26:41;;;;;;;;;;;;;;;;;;5035835;28;20248;-23
2024/01/24 08:29:07;;;;;;;;;;;;;;;;;;5036112;28;19909;-26
2024/01/24 08:31:33;;;;;;;;;;;;;;;;;;5036040;28;20012;-25
2024/01/24 08:33:59;;;;;;;;;;;;;;;;;;5035931;28;19909;-24
2024/01/24 08:36:25;;;;;;;;;;;;;;;;;;5035868;28;19909;-26
2024/01/24 08:38:51;;;;;;;;;;;;;;;;;;5035850;28;19912;-28
2024/01/24 08:41:17;;;;;;;;;;;;;;;;;;5036084;28;20040;-25
2024/01/24 08:43:43;;;;;;;;;;;;;;;;;;5035767;28;19909;-25
2024/01/24 08:46:09;;;;;;;;;;;;;;;;;;5035653;28;20387;-26
2024/01/24 08:48:35;;;;;;;;;;;;;;;;;;5035554;28;19909;-27
2024/01/24 08:51:01;;;;;;;;;;;;;;;;;;5035762;28;19920;-24
2024/01/24 08:53:27;;;;;;;;;;;;;;;;;;5035389;28;20320;-29
2024/01/24 08:55:54;;;;;;;;;;;;;;;;;;5035384;28;19909;-23
2024/01/24 08:58:20;;;;;;;;;;;;;;;;;;5035339;28;19971;-22
2024/01/24 09:00:47;;;;;;;;;;;;;;;;;;5035380;28;20332;-23
2024/01/24 09:03:13;;;;;;;;;;;;;;;;;;5034678;28;19933;-29
2024/01/24 09:05:39;;;;;;;;;;;;;;;;;;5035175;28;19952;-25
2024/01/24 09:08:05;;;;;;;;;;;;;;;;;;5034898;28;19916;-30
2024/01/24 09:10:32;;;;;;;;;;;;;;;;;;5034067;28;19920;-25
2024/01/24 09:12:58;;;;;;;;;;;;;;;;;;5034890;28;20359;-24
2024/01/24 09:15:24;;;;;;;;;;;;;;;;;;5034907;28;19916;-25
2024/01/24 09:17:50;;;;;;;;;;;;;;;;;;5034945;28;19920;-25
2024/01/24 09:20:16;;;;;;;;;;;;;;;;;;5035262;28;20297;-29
2024/01/24 09:22:42;;;;;;;;;;;;;;;;;;5034980;28;19991;-29
2024/01/24 09:25:08;;;;;;;;;;;;;;;;;;5035104;28;20291;-25
2024/01/24 09:27:33;;;;;;;;;;;;;;;;;;5034520;28;19975;-24
2024/01/24 09:30:00;;;;;;;;;;;;;;;;;;5034603;28;20289;-25
2024/01/24 09:32:26;;;;;;;;;;;;;;;;;;5034690;28;19959;-26
2024/01/24 09:34:52;;;;;;;;;;;;;;;;;;5034493;28;20324;-26
2024/01/24 09:37:19;;;;;;;;;;;;;;;;;;5034441;28;19917;-29
2024/01/24 09:39:45;;;;;;;;;;;;;;;;;;5033610;28;19920;-24
2024/01/24 09:42:11;;;;;;;;;;;;;;;;;;5034463;28;20329;-27
2024/01/24 09:44:37;;;;;;;;;;;;;;;;;;5033830;28;19910;-27
2024/01/24 09:47:03;;;;;;;;;;;;;;;;;;5033493;28;19913;-24
2024/01/24 09:49:29;;;;;;;;;;;;;;;;;;5033452;28;19936;-30
2024/01/24 09:51:55;;;;;;;;;;;;;;;;;;5032229;28;19913;-25
2024/01/24 09:54:21;;;;;;;;;;;;;;;;;;5032349;28;20252;-26
2024/01/24 09:56:48;;;;;;;;;;;;;;;;;;5033478;28;19970;-28
2024/01/24 09:59:14;;;;;;;;;;;;;;;;;;5033243;28;20363;-24
2024/01/24 10:01:40;;;;;;;;;;;;;;;;;;5033512;28;19909;-25
2024/01/24 10:04:06;;;;;;;;;;;;;;;;;;5033404;28;19983;-24
2024/01/24 10:06:32;;;;;;;;;;;;;;;;;;5032061;28;19913;-23
2024/01/24 10:08:58;;;;;;;;;;;;;;;;;;5033146;28;19913;-24
2024/01/24 10:11:24;;;;;;;;;;;;;;;;;;5032025;28;19983;-23
2024/01/24 10:13:50;;;;;;;;;;;;;;;;;;5032998;28;20032;-29
2024/01/24 10:16:18;;;;;;;;;;;;;;;;;;5033444;28;20403;-27
2024/01/24 10:18:45;;;;;;;;;;;;;;;;;;5031870;28;19913;-28
2024/01/24 10:21:11;;;;;;;;;;;;;;;;;;5033560;28;19956;-22
2024/01/24 10:23:37;;;;;;;;;;;;;;;;;;5034163;28;19956;-26
2024/01/24 10:26:03;;;;;;;;;;;;;;;;;;5034264;28;19913;-26
2024/01/24 10:28:29;;;;;;;;;;;;;;;;;;5034056;28;19999;-23
2024/01/24 10:30:55;;;;;;;;;;;;;;;;;;5034165;28;19909;-25
2024/01/24 10:33:22;;;;;;;;;;;;;;;;;;5034208;28;19909;-25
2024/01/24 10:35:48;;;;;;;;;;;;;;;;;;5034086;28;19967;-26
2024/01/24 10:38:14;;;;;;;;;;;;;;;;;;5034879;28;19992;-21
2024/01/24 10:40:40;;;;;;;;;;;;;;;;;;5038188;28;19956;-23
2024/01/24 10:43:06;;;;;;;;;;;;;;;;;;5037770;28;19909;-25
2024/01/24 10:45:32;;;;;;;;;;;;;;;;;;5037739;28;20320;-29
2024/01/24 10:47:58;;;;;;;;;;;;;;;;;;5037775;28;19944;-26
2024/01/24 10:50:24;;;;;;;;;;;;;;;;;;5037899;28;19944;-24
2024/01/24 10:52:51;;;;;;;;;;;;;;;;;;5037745;28;19995;-27
2024/01/24 10:55:17;;;;;;;;;;;;;;;;;;5037516;28;20331;-29
2024/01/24 10:57:43;;;;;;;;;;;;;;;;;;5037617;28;19933;-26
2024/01/24 11:00:14;;;;;;;;;;;;;;;;;;5037504;28;20412;-29
2024/01/24 11:02:41;;;;;;;;;;;;;;;;;;5036300;28;19975;-28
2024/01/24 11:05:07;;;;;;;;;;;;;;;;;;5037905;28;20015;-28
2024/01/24 11:07:33;;;;;;;;;;;;;;;;;;5037940;28;19996;-28
2024/01/24 11:09:59;;;;;;;;;;;;;;;;;;5037554;28;19956;-29
2024/01/24 11:12:25;;;;;;;;;;;;;;;;;;5037736;28;19920;-27
2024/01/24 11:14:52;;;;;;;;;;;;;;;;;;5037767;28;20336;-26
2024/01/24 11:17:18;;;;;;;;;;;;;;;;;;5037846;28;20333;-27
2024/01/24 11:19:44;;;;;;;;;;;;;;;;;;5036515;28;20059;-27
2024/01/24 11:22:10;;;;;;;;;;;;;;;;;;5037386;28;19909;-26
2024/01/24 11:24:36;;;;;;;;;;;;;;;;;;5037353;28;20314;-26
2024/01/24 11:27:02;;;;;;;;;;;;;;;;;;5037166;28;19913;-25
2024/01/24 11:29:28;;;;;;;;;;;;;;;;;;5036920;28;20345;-24
2024/01/24 11:31:54;;;;;;;;;;;;;;;;;;5037066;28;19913;-25
2024/01/24 11:34:20;;;;;;;;;;;;;;;;;;5037070;28;20004;-24
2024/01/24 11:36:47;;;;;;;;;;;;;;;;;;5037287;28;19921;-24
2024/01/24 11:39:13;;;;;;;;;;;;;;;;;;5037010;28;20217;-28
2024/01/24 11:41:41;;;;;;;;;;;;;;;;;;5035956;28;19909;-29
2024/01/24 11:44:07;;;;;;;;;;;;;;;;;;5036841;28;20255;-29
2024/01/24 11:46:33;;;;;;;;;;;;;;;;;;5037020;28;19913;-25
2024/01/24 11:48:59;;;;;;;;;;;;;;;;;;5037108;28;20363;-26
2024/01/24 11:51:24;;;;;;;;;;;;;;;;;;5035539;28;19920;-27
2024/01/24 11:53:51;;;;;;;;;;;;;;;;;;5036802;28;19916;-22
2024/01/24 11:56:17;;;;;;;;;;;;;;;;;;5036910;28;19949;-31
2024/01/24 11:58:43;;;;;;;;;;;;;;;;;;5036293;28;20014;-27
2024/01/24 12:01:08;;;;;;;;;;;;;;;;;;5034467;28;19972;-30
2024/01/24 12:03:34;;;;;;;;;;;;;;;;;;5034078;28;19921;-29
2024/01/24 12:06:00;;;;;;;;;;;;;;;;;;5035546;28;20335;-24
2024/01/24 12:08:26;;;;;;;;;;;;;;;;;;5035487;28;19941;-25
2024/01/24 12:10:52;;;;;;;;;;;;;;;;;;5035266;28;20320;-24
2024/01/24 12:13:18;;;;;;;;;;;;;;;;;;5035634;28;19909;-24
2024/01/24 12:15:44;;;;;;;;;;;;;;;;;;5035341;28;19920;-26
2024/01/24 12:18:10;;;;;;;;;;;;;;;;;;5035072;28;19910;-29
2024/01/24 12:20:36;;;;;;;;;;;;;;;;;;5035264;28;19913;-28
2024/01/24 12:23:02;;;;;;;;;;;;;;;;;;5034420;28;19995;-26
2024/01/24 12:25:28;;;;;;;;;;;;;;;;;;5035712;28;20008;-26
2024/01/24 12:27:56;;;;;;;;;;;;;;;;;;5036134;28;19918;-29
2024/01/24 12:30:22;;;;;;;;;;;;;;;;;;5035966;28;20004;-28
2024/01/24 12:32:48;;;;;;;;;;;;;;;;;;5035864;28;20057;-26
2024/01/24 12:35:14;;;;;;;;;;;;;;;;;;5036157;28;19972;-24
2024/01/24 12:37:41;;;;;;;;;;;;;;;;;;5035811;28;19910;-26
2024/01/24 12:40:09;;;;;;;;;;;;;;;;;;5035943;28;19909;-28
2024/01/24 12:42:35;;;;;;;;;;;;;;;;;;5036437;28;20220;-24
2024/01/24 12:45:01;;;;;;;;;;;;;;;;;;5035411;28;19909;-25
2024/01/24 12:47:28;;;;;;;;;;;;;;;;;;5035941;28;19932;-29
2024/01/24 12:49:54;;;;;;;;;;;;;;;;;;5035409;28;20004;-24
2024/01/24 12:52:20;;;;;;;;;;;;;;;;;;5035564;28;20328;-25
2024/01/24 12:54:46;;;;;;;;;;;;;;;;;;5035605;28;19909;-22
2024/01/24 12:57:15;;;;;;;;;;;;;;;;;;5035525;28;19916;-27
2024/01/24 12:59:41;;;;;;;;;;;;;;;;;;5035406;28;19909;-21
2024/01/24 13:02:09;;;;;;;;;;;;;;;;;;5035355;28;19979;-24
2024/01/24 13:04:35;;;;;;;;;;;;;;;;;;5035148;28;19921;-24
2024/01/24 13:07:01;;;;;;;;;;;;;;;;;;5035158;28;19913;-22
2024/01/24 13:09:27;;;;;;;;;;;;;;;;;;5035555;28;19916;-22
2024/01/24 13:11:53;;;;;;;;;;;;;;;;;;5035458;28;20299;-27
2024/01/24 13:14:19;;;;;;;;;;;;;;;;;;5035170;28;19916;-24
2024/01/24 13:16:45;;;;;;;;;;;;;;;;;;5033970;28;19957;-25
2024/01/24 13:19:11;;;;;;;;;;;;;;;;;;5035127;28;19917;-28
2024/01/24 13:21:38;;;;;;;;;;;;;;;;;;5034755;28;20324;-26
2024/01/24 13:24:04;;;;;;;;;;;;;;;;;;5034815;28;19943;-24
2024/01/24 13:26:30;;;;;;;;;;;;;;;;;;5034572;28;20007;-26
2024/01/24 13:28:56;;;;;;;;;;;;;;;;;;5034974;28;19920;-26
2024/01/24 13:31:22;;;;;;;;;;;;;;;;;;5035076;28;19909;-26
2024/01/24 13:33:50;;;;;;;;;;;;;;;;;;5034858;28;20134;-27
2024/01/24 13:36:16;;;;;;;;;;;;;;;;;;5034887;28;19909;-25
2024/01/24 13:38:42;;;;;;;;;;;;;;;;;;5034683;28;20403;-23
2024/01/24 13:41:08;;;;;;;;;;;;;;;;;;5035237;28;19962;-25
2024/01/24 13:43:34;;;;;;;;;;;;;;;;;;5034853;28;19971;-26
2024/01/24 13:46:00;;;;;;;;;;;;;;;;;;5034479;28;20337;-25
2024/01/24 13:48:26;;;;;;;;;;;;;;;;;;5035373;28;19923;-26
2024/01/24 13:50:53;;;;;;;;;;;;;;;;;;5034749;28;19917;-25
2024/01/24 13:53:18;;;;;;;;;;;;;;;;;;5034704;28;19909;-24
2024/01/24 13:55:44;;;;;;;;;;;;;;;;;;5034785;28;19920;-24
2024/01/24 13:58:10;;;;;;;;;;;;;;;;;;5034514;28;20344;-22
2024/01/24 14:00:36;;;;;;;;;;;;;;;;;;5034449;28;19974;-26
2024/01/24 14:03:02;;;;;;;;;;;;;;;;;;5034233;28;19917;-25
2024/01/24 14:05:29;;;;;;;;;;;;;;;;;;5034749;28;19917;-27
2024/01/24 14:07:55;;;;;;;;;;;;;;;;;;5033425;28;19924;-22
2024/01/24 14:10:21;;;;;;;;;;;;;;;;;;5034485;28;19909;-23
2024/01/24 14:12:47;;;;;;;;;;;;;;;;;;5033716;28;19917;-27
2024/01/24 14:15:13;;;;;;;;;;;;;;;;;;5034410;28;19920;-27
2024/01/24 14:17:39;;;;;;;;;;;;;;;;;;5034464;28;19909;-30
2024/01/24 14:20:05;;;;;;;;;;;;;;;;;;5034214;28;20347;-29
2024/01/24 14:22:31;;;;;;;;;;;;;;;;;;5034035;28;19910;-27
2024/01/24 14:24:57;;;;;;;;;;;;;;;;;;5034426;28;19920;-28
2024/01/24 14:27:26;;;;;;;;;;;;;;;;;;5033978;28;19971;-24
2024/01/24 14:29:52;;;;;;;;;;;;;;;;;;5034115;28;19959;-25
2024/01/24 14:32:18;;;;;;;;;;;;;;;;;;5034180;28;19913;-25
2024/01/24 14:34:44;;;;;;;;;;;;;;;;;;5034342;28;19944;-25
2024/01/24 14:37:10;;;;;;;;;;;;;;;;;;5034135;28;19909;-30
2024/01/24 14:39:37;;;;;;;;;;;;;;;;;;5033961;28;19975;-27
2024/01/24 14:42:04;;;;;;;;;;;;;;;;;;5033790;28;19909;-29
2024/01/24 14:44:30;;;;;;;;;;;;;;;;;;5034718;28;20227;-28
2024/01/24 14:46:56;;;;;;;;;;;;;;;;;;5034106;28;19920;-25
2024/01/24 14:49:24;;;;;;;;;;;;;;;;;;5034174;28;20080;-26
2024/01/24 14:51:50;;;;;;;;;;;;;;;;;;5034330;28;19909;-23
2024/01/24 14:54:16;;;;;;;;;;;;;;;;;;5033947;28;19909;-27
2024/01/24 14:56:42;;;;;;;;;;;;;;;;;;5034235;28;20204;-25
2024/01/24 14:59:08;;;;;;;;;;;;;;;;;;5034267;28;19909;-29
2024/01/24 15:01:34;;;;;;;;;;;;;;;;;;5034083;28;20233;-22
2024/01/24 15:04:00;;;;;;;;;;;;;;;;;;5034093;28;19960;-24
2024/01/24 15:06:26;;;;;;;;;;;;;;;;;;5033875;28;20320;-21
2024/01/24 15:08:52;;;;;;;;;;;;;;;;;;5033943;28;19909;-24
2024/01/24 15:11:18;;;;;;;;;;;;;;;;;;5034096;28;19935;-24
2024/01/24 15:13:44;;;;;;;;;;;;;;;;;;5033659;28;20408;-26
2024/01/24 15:16:10;;;;;;;;;;;;;;;;;;5033318;28;19948;-25
2024/01/24 15:18:37;;;;;;;;;;;;;;;;;;5033548;28;19909;-27
2024/01/24 15:21:04;;;;;;;;;;;;;;;;;;5033910;28;20225;-27
2024/01/24 15:23:30;;;;;;;;;;;;;;;;;;5033351;28;20000;-27
2024/01/24 15:25:56;;;;;;;;;;;;;;;;;;5036538;28;20292;-27
2024/01/24 15:28:22;;;;;;;;;;;;;;;;;;5037298;28;19909;-27
2024/01/24 15:30:48;;;;;;;;;;;;;;;;;;5037065;28;19910;-27
2024/01/24 15:33:14;;;;;;;;;;;;;;;;;;5035830;28;20000;-25
2024/01/24 15:35:40;;;;;;;;;;;;;;;;;;5037294;28;19920;-28
2024/01/24 15:38:06;;;;;;;;;;;;;;;;;;5037330;28;19909;-26
2024/01/24 15:40:32;;;;;;;;;;;;;;;;;;5035724;28;20345;-29
2024/01/24 15:42:59;;;;;;;;;;;;;;;;;;5035532;28;19919;-29
2024/01/24 15:45:26;;;;;;;;;;;;;;;;;;5036484;28;20315;-27
2024/01/24 15:47:52;;;;;;;;;;;;;;;;;;5036458;28;19945;-29
2024/01/24 15:50:18;;;;;;;;;;;;;;;;;;5036513;28;19913;-28
2024/01/24 15:52:44;;;;;;;;;;;;;;;;;;5036465;28;19952;-28
2024/01/24 15:55:11;;;;;;;;;;;;;;;;;;5035551;28;20029;-29
2024/01/24 15:57:37;;;;;;;;;;;;;;;;;;5036484;28;19909;-30
2024/01/24 16:00:03;;;;;;;;;;;;;;;;;;5036662;28;19974;-26
2024/01/24 16:02:29;;;;;;;;;;;;;;;;;;5036216;28;19920;-26
2024/01/24 16:04:55;;;;;;;;;;;;;;;;;;5035252;28;19913;-26
2024/01/24 16:07:21;;;;;;;;;;;;;;;;;;5035075;28;20012;-28
2024/01/24 16:09:47;;;;;;;;;;;;;;;;;;5036194;28;20296;-23
2024/01/24 16:12:15;;;;;;;;;;;;;;;;;;5036328;28;19909;-24
2024/01/24 16:14:41;;;;;;;;;;;;;;;;;;5035992;28;20450;-24
2024/01/24 16:17:07;;;;;;;;;;;;;;;;;;5036276;28;19952;-26
2024/01/24 16:19:33;;;;;;;;;;;;;;;;;;5036022;28;19909;-26
2024/01/24 16:21:59;;;;;;;;;;;;;;;;;;5036810;28;19916;-23
2024/01/24 16:24:25;;;;;;;;;;;;;;;;;;5035013;28;19999;-24
2024/01/24 16:26:51;;;;;;;;;;;;;;;;;;5035915;28;19913;-22
2024/01/24 16:29:17;;;;;;;;;;;;;;;;;;5035879;28;19975;-24
2024/01/24 16:31:43;;;;;;;;;;;;;;;;;;5035868;28;19909;-29
2024/01/24 16:34:09;;;;;;;;;;;;;;;;;;5035749;28;19909;-27
2024/01/24 16:36:36;;;;;;;;;;;;;;;;;;5034980;28;19916;-26
2024/01/24 16:39:02;;;;;;;;;;;;;;;;;;5036066;28;19913;-26